ADDS METAR Data INFO
IDs: Format: Raw Decoded Include TAF

Data at: 2256 UTC 22 Jun 2018

KAVK 222235Z AUTO 10007KT 10SM CLR 29/15 A2976 RMK AO2
KAVK 222215Z AUTO 13010KT 10SM CLR 29/15 A2978 RMK AO2
KAVK 222155Z AUTO 10004KT 10SM CLR 28/15 A2979 RMK AO2
KAVK 222135Z AUTO VRB04KT 10SM CLR 28/15 A2981 RMK AO2
KAVK 222115Z AUTO 00000KT 10SM CLR 27/15 A2981 RMK AO2
KAVK 222055Z AUTO 00000KT 10SM CLR 26/14 A2982 RMK AO2
KAVK 222035Z AUTO 00000KT 10SM CLR 26/16 A2984 RMK AO2
KAVK 222015Z AUTO 04004KT 10SM CLR 25/16 A2984 RMK AO2
KAVK 221955Z AUTO 03004KT 10SM CLR 24/17 A2985 RMK AO2
KAVK 221935Z AUTO 00000KT 10SM CLR 24/16 A2987 RMK AO2
KAVK 221915Z AUTO VRB04KT 10SM FEW100 23/17 A2987 RMK AO2
KAVK 221855Z AUTO 00000KT 9SM VCTS SCT110 22/18 A2988 RMK AO2 LTG DSNT N AND E
KAVK 221835Z AUTO 03008KT 9SM TS FEW027 FEW035 SCT120 20/18 A2989 RMK AO2 LTG DSNT ALQDS
KAVK 221815Z AUTO 05009KT 4SM -TSRA FEW004 SCT041 BKN060 20/17 A2988 RMK AO2 LTG DSNT ALQDS
KAVK 221755Z AUTO 08007KT 9SM -DZ FEW038 SCT055 BKN095 21/16 A2989 RMK AO2 LTG DSNT ALQDS
KAVK 221735Z AUTO 02004G10KT 10SM FEW049 FEW070 FEW085 21/16 A2992 RMK AO2 LTG DSNT SW AND NW
KAVK 221715Z AUTO 02013KT 10SM FEW049 FEW060 BKN080 20/16 A2992 RMK AO2 LTG DSNT NE AND NW
KAVK 221655Z AUTO 00000KT 10SM CLR 21/16 A2994 RMK AO2 LTG DSNT S AND W
KAVK 221635Z AUTO 31006KT 10SM VCTS CLR 21/16 A2997 RMK AO2 LTG DSNT S-W
KAVK 221615Z AUTO 31006KT 10SM CLR 22/16 A2996 RMK AO2 LTG DSNT SW AND W
KAVK 221555Z AUTO 35004KT 10SM CLR 22/16 A2995 RMK AO2 LTG DSNT S AND W
KAVK 221535Z AUTO 01005KT 10SM CLR 21/16 A2993 RMK AO2 LTG DSNT SW AND W
KAVK 221515Z AUTO 02004KT 10SM CLR 21/16 A2993 RMK AO2
KAVK 221455Z AUTO 33003KT 10SM CLR 22/16 A2995 RMK AO2 LTG DSNT S-W
KAVK 221435Z AUTO 35004KT 10SM CLR 22/16 A2996 RMK AO2 LTG DSNT SW AND W
KAVK 221415Z AUTO 02006KT 10SM CLR 23/16 A2994 RMK AO2
KAVK 221355Z AUTO 04005KT 10SM CLR 22/16 A2993 RMK AO2
KAVK 221335Z AUTO 00000KT 10SM CLR 21/17 A2993 RMK AO2
KAVK 221315Z AUTO 00000KT 10SM CLR 21/17 A2993 RMK AO2
KAVK 221255Z AUTO 23004KT 10SM FEW100 21/16 A2994 RMK AO2
KAVK 221235Z AUTO 22006KT 10SM CLR 21/16 A2995 RMK AO2
KAVK 221215Z AUTO 23004KT 10SM CLR 20/16 A2995 RMK AO2 LTG DSNT SE AND S
KAVK 221155Z AUTO 25006KT 10SM SCT075 19/16 A2995 RMK AO2
KAVK 221135Z AUTO 24011KT 10SM BKN075 19/16 A2997 RMK AO2
KAVK 221115Z AUTO 33004KT 10SM FEW100 FEW120 18/16 A2993 RMK AO2
KAVK 221055Z AUTO 32004KT 10SM VCTS CLR 19/15 A2992 RMK AO2 LTG DSNT S AND SW
KAVK 221035Z AUTO 35009KT 10SM CLR 19/15 A2993 RMK AO2 TSNO
KAVK 221015Z AUTO 35007KT 10SM CLR 19/16 A2992 RMK AO2 LTG DSNT S AND SW
KAVK 220955Z AUTO 35004KT 10SM CLR 18/16 A2991 RMK AO2
KAVK 220935Z AUTO 36007KT 10SM CLR 18/16 A2991 RMK AO2 LTG DSNT SW
KAVK 220915Z AUTO 29006KT 10SM FEW050 17/16 A2990 RMK AO2
KAVK 220855Z AUTO 25006KT 10SM CLR 18/15 A2989 RMK AO2
KAVK 220835Z AUTO 00000KT 10SM CLR 18/15 A2988 RMK AO2
KAVK 220815Z AUTO 00000KT 10SM CLR 18/15 A2988 RMK AO2
KAVK 220755Z AUTO 18003KT 10SM FEW050 19/15 A2988 RMK AO2
KAVK 220735Z AUTO 00000KT 10SM CLR 20/14 A2990 RMK AO2
KAVK 220715Z AUTO 00000KT 10SM FEW055 20/15 A2990 RMK AO2
KAVK 220655Z AUTO 03004KT 10SM SCT055 21/14 A2992 RMK AO2
KAVK 220635Z AUTO 03004KT 10SM FEW048 SCT055 21/14 A2992 RMK AO2
KAVK 220615Z AUTO 04005KT 10SM FEW046 SCT055 20/14 A2992 RMK AO2
KAVK 220555Z AUTO 04007KT 10SM FEW047 SCT055 21/14 A2992 RMK AO2
KAVK 220535Z AUTO 05007KT 10SM FEW055 22/14 A2993 RMK AO2
KAVK 220515Z AUTO 03010KT 10SM FEW055 23/14 A2992 RMK AO2
KAVK 220455Z AUTO 01005KT 10SM FEW060 23/14 A2992 RMK AO2
KAVK 220435Z AUTO 01005KT 10SM CLR 23/15 A2992 RMK AO2
KAVK 220415Z AUTO 01007KT 10SM CLR 24/15 A2991 RMK AO2
KAVK 220355Z AUTO 01007KT 10SM FEW055 24/14 A2991 RMK AO2
KAVK 220335Z AUTO 01006KT 10SM FEW055 25/15 A2990 RMK AO2
KAVK 220315Z AUTO 01005KT 10SM CLR 25/15 A2989 RMK AO2
KAVK 220255Z AUTO 01006KT 10SM CLR 25/15 A2988 RMK AO2
KAVK 220235Z AUTO 01005KT 10SM CLR 27/15 A2987 RMK AO2
KAVK 220215Z AUTO 01005KT 10SM CLR 27/15 A2987 RMK AO2
KAVK 220155Z AUTO 34005KT 10SM CLR 28/14 A2987 RMK AO2
KAVK 220135Z AUTO 34007KT 10SM CLR 30/14 A2986 RMK AO2
KAVK 220115Z AUTO 31010KT 10SM CLR 31/14 A2986 RMK AO2
KAVK 220055Z AUTO 31009KT 10SM CLR 32/13 A2986 RMK AO2
KAVK 220035Z AUTO 31010G17KT 10SM CLR 32/13 A2986 RMK AO2
KAVK 220015Z AUTO 31015KT 10SM CLR 32/13 A2986 RMK AO2
KAVK 212355Z AUTO 31013KT 10SM CLR 32/13 A2986 RMK AO2
KAVK 212335Z AUTO 32014G21KT 10SM CLR 33/13 A2987 RMK AO2
KAVK 212315Z AUTO 30011G19KT 10SM CLR 33/13 A2987 RMK AO2
KAVK 212255Z AUTO 32016G21KT 10SM CLR 33/13 A2988 RMK AO2
KAVK 212235Z AUTO 32018KT 10SM SCT080 33/13 A2989 RMK AO2
KAVK 212215Z AUTO 28012G19KT 10SM SCT080 32/13 A2990 RMK AO2
KAVK 212155Z AUTO 30012G22KT 10SM SCT080 SCT090 33/13 A2990 RMK AO2
KAVK 212135Z AUTO 31014KT 10SM CLR 32/13 A2990 RMK AO2
KAVK 212115Z AUTO 32010G16KT 10SM SCT080 SCT110 32/13 A2991 RMK AO2
KAVK 212055Z AUTO 31010G17KT 10SM BKN075 31/13 A2991 RMK AO2
KAVK 212035Z AUTO 32008G18KT 10SM BKN075 BKN085 31/13 A2992 RMK AO2
KAVK 212015Z AUTO 30013G19KT 10SM BKN080 31/13 A2993 RMK AO2
KAVK 211955Z AUTO 31017G22KT 10SM SCT080 31/14 A2993 RMK AO2
KAVK 211935Z AUTO 31014G21KT 10SM FEW080 31/13 A2994 RMK AO2
KAVK 211915Z AUTO 31012G19KT 10SM CLR 31/13 A2994 RMK AO2
KAVK 211855Z AUTO 30013KT 10SM CLR 30/12 A2995 RMK AO2
KAVK 211835Z AUTO 30014G22KT 10SM CLR 30/13 A2995 RMK AO2
KAVK 211815Z AUTO 31011G20KT 10SM CLR 30/13 A2996 RMK AO2
KAVK 211755Z AUTO 32010G19KT 10SM CLR 29/13 A2997 RMK AO2
KAVK 211735Z AUTO 34012KT 10SM CLR 29/14 A2998 RMK AO2
KAVK 211715Z AUTO 32013KT 10SM CLR 29/14 A2998 RMK AO2
KAVK 211655Z AUTO 31012G18KT 10SM CLR 28/13 A2999 RMK AO2
KAVK 211635Z AUTO 31012KT 10SM FEW110 27/13 A2999 RMK AO2
KAVK 211615Z AUTO 33011G18KT 10SM CLR 27/14 A3000 RMK AO2
KAVK 211555Z AUTO 32011G18KT 10SM CLR 27/14 A3000 RMK AO2
KAVK 211535Z AUTO 33012KT 10SM CLR 26/14 A3001 RMK AO2
KAVK 211515Z AUTO 32010G16KT 10SM CLR 25/15 A3002 RMK AO2
KAVK 211455Z AUTO 31012KT 10SM CLR 24/15 A3002 RMK AO2
KAVK 211435Z AUTO 31010KT 10SM CLR 23/16 A3002 RMK AO2
KAVK 211355Z AUTO 29005KT 10SM -RA FEW036 FEW055 SCT075 20/17 A3002 RMK AO2
KAVK 211335Z AUTO 31006KT 9SM -RA FEW035 SCT075 BKN110 21/16 A3002 RMK AO2
KAVK 211315Z AUTO 33005KT 10SM BKN110 21/15 A3001 RMK AO2
KAVK 211255Z AUTO 30008KT 10SM FEW120 21/15 A3002 RMK AO2
KAVK 211235Z AUTO 28004KT 10SM CLR 20/16 A3002 RMK AO2
KAVK 211215Z AUTO 29006KT 10SM SCT110 20/16 A3001 RMK AO2
KAVK 211155Z AUTO 31008KT 10SM FEW055 FEW075 BKN120 20/16 A3001 RMK AO2
KAVK 211135Z AUTO 31006KT 10SM FEW055 SCT075 SCT090 20/16 A3001 RMK AO2
KAVK 211115Z AUTO 32006KT 10SM FEW048 FEW055 SCT120 20/16 A3001 RMK AO2